Stambaugh, Michigan
Current Conditions -  °F | °C
As of 11:35 PM on Sunday 21 Dec 2014 (Local Time) from KLNL Reporting Station
Overcast Overcast  
Wind Chill: 26°   Ceiling: 800
Heat Index: 33°   Visibility: 7mi
Dew Point: 32°   Wind: 8mph
Humidity: 96%   Direction: 170°S
Pressure: 29.83"   Gusts: NA
Location:  46.08°N, 88.63°W
Report Text: KLNL 220535Z AUTO 17007KT 7SM OVC008 01/00 A2983 RMK AO2 T00050000
Loading
Personal Weather Stations






























Interactive Weather Map New forecast layout! Learn more

10-Day Weather Forecast

Advertisements
Track Severe Weather on mobile